Time;durP1;ratioP1;P1;durP2;ratioP2;P2;SDS_P1;SDS_P2;PMS_P1;PMS_P2;Temp;Humidity;BMP_temperature;BMP_pressure;BME280_temperature;BME280_humidity;BME280_pressure;Samples;Min_cycle;Max_cycle;Signal;HPM_P1;HPM_P2
2023/05/13 00:02:18;;;;;;;0.10;0.10;;;11.20;99.90;;;;;;4960178;28;20245;-80
2023/05/13 00:04:44;;;;;;;0.07;0.07;;;11.10;99.90;;;;;;4958248;28;20200;-81
2023/05/13 00:07:09;;;;;;;0.10;0.10;;;11.00;99.90;;;;;;4968342;28;20446;-80
2023/05/13 00:09:35;;;;;;;0.10;0.10;;;11.10;99.90;;;;;;4979475;28;20276;-80
2023/05/13 00:12:02;;;;;;;0.07;0.07;;;11.20;99.90;;;;;;4985465;28;20204;-80
2023/05/13 00:14:27;;;;;;;0.10;0.10;;;11.00;99.90;;;;;;4982165;28;20196;-81
2023/05/13 00:16:53;;;;;;;0.10;0.10;;;11.00;99.90;;;;;;4958806;28;20442;-80
2023/05/13 00:19:19;;;;;;;0.10;0.10;;;11.00;99.90;;;;;;4971432;28;20261;-80
2023/05/13 00:21:45;;;;;;;0.00;0.00;;;11.10;99.90;;;;;;4938631;28;20273;-81
2023/05/13 00:24:10;;;;;;;0.10;0.10;;;11.00;99.90;;;;;;4980070;28;21033;-80
2023/05/13 00:26:36;;;;;;;0.10;0.10;;;11.10;99.90;;;;;;4961863;28;20249;-80
2023/05/13 00:29:01;;;;;;;0.10;0.10;;;11.20;99.90;;;;;;4966374;28;20234;-80
2023/05/13 00:31:27;;;;;;;0.10;0.10;;;11.10;99.90;;;;;;4969044;28;20221;-80
2023/05/13 00:33:52;;;;;;;0.10;0.10;;;11.10;99.90;;;;;;4972439;28;20284;-80
2023/05/13 00:36:18;;;;;;;0.10;0.10;;;11.00;99.90;;;;;;4978506;28;20257;-80
2023/05/13 00:38:43;;;;;;;0.10;0.10;;;11.00;99.90;;;;;;4969436;28;20200;-80
2023/05/13 00:41:09;;;;;;;0.10;0.10;;;10.90;99.90;;;;;;4973211;28;20273;-80
2023/05/13 00:43:34;;;;;;;0.10;0.10;;;11.00;99.90;;;;;;4961719;28;20284;-80
2023/05/13 00:46:00;;;;;;;0.10;0.10;;;10.80;99.90;;;;;;4972801;28;20192;-80
2023/05/13 00:48:25;;;;;;;0.10;0.10;;;10.90;99.90;;;;;;4966703;28;20217;-80
2023/05/13 00:50:51;;;;;;;0.10;0.10;;;10.80;99.90;;;;;;4987608;28;20212;-80
2023/05/13 00:53:17;;;;;;;0.10;0.10;;;10.90;99.90;;;;;;4962015;28;20194;-80
2023/05/13 00:55:44;;;;;;;0.10;0.10;;;10.80;99.90;;;;;;4960101;28;20186;-80
2023/05/13 00:58:10;;;;;;;0.10;0.10;;;10.80;99.90;;;;;;4951138;28;20187;-80
2023/05/13 01:00:58;;;;;;;0.10;0.10;;;10.70;99.90;;;;;;4980502;28;20957;-80
2023/05/13 01:03:35;;;;;;;0.10;0.10;;;10.70;99.90;;;;;;4963646;28;20540;-80
2023/05/13 01:06:10;;;;;;;0.10;0.10;;;10.70;99.90;;;;;;4963206;28;20492;-80
2023/05/13 01:09:01;;;;;;;0.10;0.10;;;10.60;99.90;;;;;;4967692;28;20484;-80
2023/05/13 01:11:30;;;;;;;0.10;0.10;;;10.70;99.90;;;;;;4964442;28;20543;-80
2023/05/13 01:14:05;;;;;;;0.10;0.10;;;10.70;99.90;;;;;;4972653;28;20467;-80
2023/05/13 01:16:39;;;;;;;0.10;0.10;;;10.70;99.90;;;;;;4971585;28;20983;-80
2023/05/13 01:19:24;;;;;;;0.10;0.10;;;10.70;99.90;;;;;;4955248;28;20878;-80
2023/05/13 01:21:54;;;;;;;0.07;0.07;;;10.70;99.90;;;;;;4937565;29;20470;-80
2023/05/13 01:24:19;;;;;;;0.10;0.10;;;10.70;99.90;;;;;;4967405;28;20447;-80
2023/05/13 01:26:45;;;;;;;0.10;0.10;;;10.70;99.90;;;;;;4972867;28;20966;-80
2023/05/13 01:29:10;;;;;;;0.00;0.00;;;10.70;99.90;;;;;;4957989;28;21656;-80
2023/05/13 01:31:37;;;;;;;0.03;0.03;;;10.70;99.90;;;;;;4969821;28;20197;-80
2023/05/13 01:34:04;;;;;;;0.07;0.07;;;10.60;99.90;;;;;;4970169;28;20193;-79
2023/05/13 01:36:31;;;;;;;0.10;0.10;;;10.60;99.90;;;;;;4968517;28;20442;-80
2023/05/13 01:38:58;;;;;;;0.10;0.10;;;10.60;99.90;;;;;;4979097;28;20515;-80
2023/05/13 01:41:25;;;;;;;0.10;0.10;;;10.70;99.90;;;;;;4946914;28;20441;-80
2023/05/13 01:43:50;;;;;;;0.10;0.10;;;10.70;99.90;;;;;;4979744;28;20452;-80
2023/05/13 01:46:16;;;;;;;0.10;0.10;;;10.60;99.90;;;;;;4956069;28;20502;-80
2023/05/13 01:48:41;;;;;;;0.10;0.10;;;10.60;99.90;;;;;;4989059;28;20236;-80
2023/05/13 01:51:08;;;;;;;0.10;0.10;;;10.60;99.90;;;;;;4982417;28;20190;-80
2023/05/13 01:53:34;;;;;;;0.00;0.00;;;10.70;99.90;;;;;;4992427;28;20281;-80
2023/05/13 01:55:59;;;;;;;0.10;0.10;;;10.60;99.90;;;;;;4979149;28;21860;-80
2023/05/13 01:58:24;;;;;;;0.10;0.10;;;10.70;99.90;;;;;;4976013;28;20236;-80
2023/05/13 02:00:50;;;;;;;0.10;0.10;;;10.60;99.90;;;;;;4982237;28;20573;-80
2023/05/13 02:03:16;;;;;;;0.10;0.10;;;10.60;99.90;;;;;;4952630;28;20178;-80
2023/05/13 02:05:41;;;;;;;0.10;0.10;;;10.70;99.90;;;;;;4946148;28;20659;-80
2023/05/13 02:08:07;;;;;;;0.10;0.10;;;10.70;99.90;;;;;;4976568;28;20236;-79
2023/05/13 02:10:32;;;;;;;0.10;0.10;;;10.70;99.90;;;;;;4984705;28;20204;-80
2023/05/13 02:12:58;;;;;;;0.10;0.10;;;10.70;99.90;;;;;;4958974;28;20279;-80
2023/05/13 02:15:23;;;;;;;0.10;0.10;;;10.80;99.90;;;;;;4987245;28;20201;-80
2023/05/13 02:17:49;;;;;;;0.10;0.10;;;10.80;99.90;;;;;;4979987;28;20242;-80
2023/05/13 02:20:14;;;;;;;0.10;0.10;;;10.80;99.90;;;;;;4974053;28;20190;-79
2023/05/13 02:22:40;;;;;;;0.10;0.10;;;10.90;99.90;;;;;;4970048;28;20186;-79
2023/05/13 02:25:06;;;;;;;0.07;0.07;;;11.00;99.90;;;;;;4986550;28;20209;-79
2023/05/13 02:27:31;;;;;;;0.07;0.07;;;11.00;99.90;;;;;;4967023;28;20545;-79
2023/05/13 02:29:57;;;;;;;0.10;0.10;;;10.90;99.90;;;;;;4983188;28;20866;-80
2023/05/13 02:32:22;;;;;;;0.10;0.10;;;10.90;99.90;;;;;;4968154;28;20719;-79
2023/05/13 02:34:48;;;;;;;0.10;0.10;;;10.80;99.90;;;;;;4978811;28;20201;-79
2023/05/13 02:37:13;;;;;;;0.10;0.10;;;10.70;99.90;;;;;;4968789;28;20193;-79
2023/05/13 02:39:39;;;;;;;0.10;0.10;;;10.70;99.90;;;;;;4982437;28;20579;-80
2023/05/13 02:42:04;;;;;;;0.10;0.10;;;10.70;99.90;;;;;;4966359;28;20560;-79
2023/05/13 02:44:30;;;;;;;0.03;0.03;;;10.70;99.90;;;;;;4971231;28;20280;-79
2023/05/13 02:46:55;;;;;;;0.10;0.10;;;10.70;99.90;;;;;;4981430;28;20677;-80
2023/05/13 02:49:21;;;;;;;0.10;0.10;;;10.70;99.90;;;;;;4964792;28;21083;-79
2023/05/13 02:51:47;;;;;;;0.10;0.10;;;10.70;99.90;;;;;;4971839;28;20241;-80
2023/05/13 02:54:12;;;;;;;0.10;0.10;;;10.60;99.90;;;;;;4961505;28;20210;-79
2023/05/13 02:56:38;;;;;;;0.10;0.10;;;10.70;99.90;;;;;;4973550;28;20447;-79
2023/05/13 02:59:03;;;;;;;0.10;0.10;;;10.60;99.90;;;;;;4967844;28;20558;-79
2023/05/13 03:01:29;;;;;;;0.00;0.00;;;;;;;;;;4978705;28;20264;-81
2023/05/13 03:03:55;;;;;;;0.10;0.10;;;10.60;99.90;;;;;;4981672;28;20247;-79
2023/05/13 03:06:20;;;;;;;0.07;0.07;;;10.50;99.90;;;;;;4970022;28;20813;-79
2023/05/13 03:08:46;;;;;;;0.10;0.10;;;10.50;99.90;;;;;;4961410;28;20230;-79
2023/05/13 03:11:11;;;;;;;0.10;0.10;;;10.50;99.90;;;;;;4956859;28;20206;-79
2023/05/13 03:13:37;;;;;;;0.10;0.10;;;10.50;99.90;;;;;;4984242;28;20203;-79
2023/05/13 03:16:02;;;;;;;0.10;0.10;;;10.40;99.90;;;;;;4974323;28;20223;-78
2023/05/13 03:18:30;;;;;;;0.10;0.10;;;10.40;99.90;;;;;;4967713;28;20197;-79
2023/05/13 03:20:56;;;;;;;0.10;0.10;;;10.40;99.90;;;;;;4970068;28;20193;-79
2023/05/13 03:23:21;;;;;;;0.10;0.10;;;10.30;99.90;;;;;;4965024;28;20450;-79
2023/05/13 03:25:47;;;;;;;0.10;0.10;;;10.30;99.90;;;;;;4959955;28;20576;-79
2023/05/13 03:28:12;;;;;;;0.10;0.10;;;10.30;99.90;;;;;;4968761;28;20324;-79
2023/05/13 03:30:38;;;;;;;0.10;0.10;;;10.40;99.90;;;;;;4970335;28;20295;-79
2023/05/13 03:33:03;;;;;;;0.10;0.10;;;10.30;99.90;;;;;;4982481;28;20560;-79
2023/05/13 03:35:29;;;;;;;0.10;0.10;;;10.30;99.90;;;;;;4983693;28;20197;-79
2023/05/13 03:37:54;;;;;;;0.10;0.10;;;10.30;99.90;;;;;;4970379;28;20311;-79
2023/05/13 03:40:20;;;;;;;0.10;0.10;;;10.20;99.90;;;;;;4975954;28;20196;-79
2023/05/13 03:42:45;;;;;;;0.10;0.10;;;10.30;99.90;;;;;;4972520;28;20186;-79
2023/05/13 03:45:11;;;;;;;0.10;0.10;;;10.30;99.90;;;;;;4966913;28;20192;-79
2023/05/13 03:47:38;;;;;;;0.10;0.10;;;10.30;99.90;;;;;;4979512;28;20253;-79
2023/05/13 03:50:04;;;;;;;0.10;0.10;;;10.30;99.90;;;;;;4956867;28;20217;-80
2023/05/13 03:52:29;;;;;;;0.10;0.10;;;10.20;99.90;;;;;;4985521;28;21000;-79
2023/05/13 03:54:55;;;;;;;0.10;0.10;;;10.30;99.90;;;;;;4987270;28;20560;-79
2023/05/13 03:57:20;;;;;;;0.10;0.10;;;10.20;99.90;;;;;;4970720;28;20178;-80
2023/05/13 03:59:46;;;;;;;0.07;0.07;;;10.30;99.90;;;;;;4968864;28;20190;-80
2023/05/13 04:02:12;;;;;;;0.10;0.10;;;10.30;99.90;;;;;;4969667;28;20190;-79
2023/05/13 04:04:37;;;;;;;0.10;0.10;;;10.30;99.90;;;;;;4954001;28;20555;-79
2023/05/13 04:07:03;;;;;;;0.10;0.10;;;10.30;99.90;;;;;;4964311;28;20234;-79
2023/05/13 04:09:28;;;;;;;0.10;0.10;;;10.40;99.90;;;;;;4970314;28;20746;-79
2023/05/13 04:11:53;;;;;;;0.10;0.10;;;10.30;99.90;;;;;;4970662;28;20187;-79
2023/05/13 04:14:19;;;;;;;0.10;0.10;;;10.30;99.90;;;;;;4977145;28;20295;-80
2023/05/13 04:16:45;;;;;;;0.10;0.10;;;10.30;99.90;;;;;;4970263;28;20186;-79
2023/05/13 04:19:10;;;;;;;0.10;0.10;;;10.30;99.90;;;;;;4956727;28;20194;-79
2023/05/13 04:21:36;;;;;;;0.10;0.10;;;10.30;99.90;;;;;;4960586;28;20190;-79
2023/05/13 04:24:01;;;;;;;0.10;0.10;;;10.20;99.90;;;;;;4974081;28;20196;-80
2023/05/13 04:26:27;;;;;;;0.10;0.10;;;10.30;99.90;;;;;;4974120;28;20231;-80
2023/05/13 04:28:52;;;;;;;0.10;0.10;;;10.40;99.90;;;;;;4970045;28;20226;-80
2023/05/13 04:31:18;;;;;;;0.03;0.03;;;10.40;99.90;;;;;;4988436;28;20185;-79
2023/05/13 04:33:44;;;;;;;0.10;0.10;;;10.40;99.90;;;;;;4955859;28;20193;-80
2023/05/13 04:36:09;;;;;;;0.10;0.10;;;10.40;99.90;;;;;;4972673;28;20642;-80
2023/05/13 04:38:35;;;;;;;0.10;0.10;;;10.40;99.90;;;;;;4968693;28;20186;-80
2023/05/13 04:41:00;;;;;;;0.10;0.10;;;10.50;99.90;;;;;;4953286;28;20197;-80
2023/05/13 04:43:26;;;;;;;0.10;0.10;;;10.60;99.90;;;;;;4975173;28;20260;-80
2023/05/13 04:45:52;;;;;;;0.10;0.10;;;10.60;99.90;;;;;;4968257;28;20194;-80
2023/05/13 04:48:17;;;;;;;0.10;0.10;;;10.60;99.90;;;;;;4977266;28;20967;-79
2023/05/13 04:50:46;;;;;;;0.10;0.10;;;10.70;99.90;;;;;;4990260;28;20232;-80
2023/05/13 04:53:12;;;;;;;0.10;0.10;;;10.70;99.90;;;;;;4990621;28;20203;-80
2023/05/13 04:55:38;;;;;;;0.10;0.10;;;10.70;99.90;;;;;;4969311;28;20539;-80
2023/05/13 04:58:03;;;;;;;0.10;0.10;;;10.90;99.90;;;;;;4966402;28;20531;-80
2023/05/13 05:00:29;;;;;;;0.10;0.10;;;11.00;99.90;;;;;;4950760;28;20189;-80
2023/05/13 05:02:55;;;;;;;0.10;0.10;;;10.90;99.90;;;;;;4964418;28;20185;-80
2023/05/13 05:05:21;;;;;;;0.10;0.10;;;11.00;99.90;;;;;;4976084;28;20643;-80
2023/05/13 05:07:46;;;;;;;0.10;0.10;;;11.00;99.90;;;;;;4977489;28;20554;-80
2023/05/13 05:10:14;;;;;;;0.10;0.10;;;11.20;99.90;;;;;;4958871;28;20230;-80
2023/05/13 05:12:40;;;;;;;0.03;0.03;;;11.30;99.90;;;;;;4982934;28;20181;-80
2023/05/13 05:15:10;;;;;;;0.03;0.03;;;11.30;99.90;;;;;;4952314;28;20466;-80
2023/05/13 05:17:35;;;;;;;0.03;0.03;;;11.40;99.90;;;;;;4973416;28;20445;-81
2023/05/13 05:20:01;;;;;;;0.10;0.10;;;11.50;99.90;;;;;;4968637;28;20441;-80
2023/05/13 05:22:26;;;;;;;0.10;0.10;;;11.50;99.90;;;;;;4974463;28;20697;-81
2023/05/13 05:24:52;;;;;;;0.10;0.10;;;11.60;99.90;;;;;;4962524;28;20198;-80
2023/05/13 05:27:18;;;;;;;0.10;0.10;;;11.80;99.90;;;;;;4977745;28;20189;-80
2023/05/13 05:29:43;;;;;;;0.07;0.07;;;11.90;99.90;;;;;;4959250;28;20225;-81
2023/05/13 05:32:09;;;;;;;0.10;0.10;;;12.10;99.90;;;;;;4968519;28;20208;-81
2023/05/13 05:34:35;;;;;;;0.10;0.10;;;12.20;99.90;;;;;;4954562;28;20180;-81
2023/05/13 05:37:00;;;;;;;0.10;0.10;;;12.30;99.90;;;;;;4983032;28;20185;-80
2023/05/13 05:39:26;;;;;;;0.10;0.10;;;12.30;99.90;;;;;;4977123;28;20513;-80
2023/05/13 05:41:52;;;;;;;0.07;0.07;;;12.40;99.90;;;;;;4974280;28;20201;-80
2023/05/13 05:44:17;;;;;;;0.10;0.10;;;12.50;99.90;;;;;;4965752;28;20185;-79
2023/05/13 05:46:43;;;;;;;0.00;0.00;;;12.50;99.90;;;;;;4984985;28;20448;-79
2023/05/13 05:49:08;;;;;;;0.07;0.07;;;12.80;99.90;;;;;;4973256;28;20205;-81
2023/05/13 05:51:34;;;;;;;0.10;0.10;;;12.70;99.90;;;;;;4963039;28;20226;-80
2023/05/13 05:54:00;;;;;;;0.00;0.00;;;12.80;99.90;;;;;;4936772;28;20183;-80
2023/05/13 05:56:25;;;;;;;0.10;0.10;;;12.80;99.90;;;;;;4966770;28;20194;-79
2023/05/13 05:58:51;;;;;;;0.07;0.07;;;12.90;99.90;;;;;;4969047;28;20455;-80
2023/05/13 06:01:16;;;;;;;0.00;0.00;;;13.00;99.90;;;;;;4966198;28;20656;-80
2023/05/13 06:03:42;;;;;;;0.00;0.00;;;13.00;99.90;;;;;;4952701;28;20198;-79
2023/05/13 06:06:07;;;;;;;0.10;0.10;;;13.00;99.90;;;;;;4959968;28;20219;-80
2023/05/13 06:08:33;;;;;;;0.10;0.10;;;13.30;99.90;;;;;;4975892;28;20660;-80
2023/05/13 06:10:58;;;;;;;0.00;0.00;;;13.20;99.90;;;;;;4975405;28;20198;-80
2023/05/13 06:13:24;;;;;;;0.03;0.03;;;13.20;99.90;;;;;;4987727;28;20181;-79
2023/05/13 06:15:50;;;;;;;0.00;0.00;;;13.20;99.90;;;;;;4974359;28;20208;-80
2023/05/13 06:18:16;;;;;;;0.00;0.00;;;13.50;99.90;;;;;;4969155;28;20925;-80
2023/05/13 06:20:42;;;;;;;0.03;0.03;;;13.40;99.90;;;;;;4983439;28;21027;-80
2023/05/13 06:23:09;;;;;;;0.00;0.00;;;13.60;99.90;;;;;;4973744;28;20186;-80
2023/05/13 06:25:34;;;;;;;0.00;0.00;;;13.60;99.90;;;;;;4982724;28;20461;-80
2023/05/13 06:28:00;;;;;;;0.03;0.03;;;13.50;99.90;;;;;;4992116;28;20543;-79
2023/05/13 06:30:25;;;;;;;0.00;0.00;;;13.70;99.90;;;;;;4980873;28;20694;-80
2023/05/13 06:32:54;;;;;;;0.00;0.00;;;13.70;99.90;;;;;;4951241;28;20197;-80
2023/05/13 06:35:19;;;;;;;0.00;0.00;;;14.00;99.90;;;;;;4981708;28;20191;-80
2023/05/13 06:37:45;;;;;;;0.00;0.00;;;14.00;99.90;;;;;;4984628;28;20467;-80
2023/05/13 06:40:11;;;;;;;0.00;0.00;;;14.00;99.90;;;;;;4967315;28;20193;-80
2023/05/13 06:42:39;;;;;;;0.00;0.00;;;;;;;;;;4971951;28;20218;-79
2023/05/13 06:45:07;;;;;;;0.00;0.00;;;14.30;99.90;;;;;;4962484;28;20445;-81
2023/05/13 06:47:32;;;;;;;0.00;0.00;;;14.40;99.90;;;;;;4973760;28;21053;-84
2023/05/13 06:49:58;;;;;;;0.00;0.00;;;14.60;99.90;;;;;;4971999;28;20559;-82
2023/05/13 06:52:23;;;;;;;0.00;0.00;;;14.50;99.90;;;;;;4969827;28;20190;-80
2023/05/13 06:54:49;;;;;;;0.00;0.00;;;14.60;99.90;;;;;;4967569;28;20213;-80
2023/05/13 06:57:14;;;;;;;0.00;0.00;;;14.70;99.90;;;;;;4986335;28;20281;-78
2023/05/13 06:59:40;;;;;;;0.00;0.00;;;14.80;99.90;;;;;;4980553;28;20201;-78
2023/05/13 07:02:08;;;;;;;0.00;0.00;;;14.80;99.90;;;;;;4967029;28;20196;-78
2023/05/13 07:04:35;;;;;;;0.00;0.00;;;14.90;99.90;;;;;;4966019;28;20543;-79
2023/05/13 07:07:00;;;;;;;0.00;0.00;;;14.80;99.90;;;;;;4970355;28;20448;-78
2023/05/13 07:09:26;;;;;;;0.00;0.00;;;;;;;;;;4957818;28;20494;-80
2023/05/13 07:11:53;;;;;;;0.00;0.00;;;15.20;99.90;;;;;;4968425;28;20243;-78
2023/05/13 07:14:18;;;;;;;0.00;0.00;;;15.10;99.90;;;;;;4963644;28;20461;-80
2023/05/13 07:16:44;;;;;;;0.00;0.00;;;15.00;99.90;;;;;;4957778;28;20447;-81
2023/05/13 07:19:10;;;;;;;0.00;0.00;;;15.30;99.90;;;;;;4979458;28;20181;-81
2023/05/13 07:21:35;;;;;;;0.00;0.00;;;15.50;99.90;;;;;;4981807;28;20262;-81
2023/05/13 07:24:01;;;;;;;0.00;0.00;;;15.60;99.90;;;;;;4966189;28;20860;-81
2023/05/13 07:26:27;;;;;;;0.00;0.00;;;15.70;99.90;;;;;;4960328;28;20183;-81
2023/05/13 07:28:52;;;;;;;0.00;0.00;;;15.70;99.90;;;;;;4969752;28;20217;-81
2023/05/13 07:31:18;;;;;;;0.00;0.00;;;15.70;99.90;;;;;;4963893;28;20197;-81
2023/05/13 07:33:43;;;;;;;0.00;0.00;;;15.90;99.90;;;;;;4978611;28;20186;-81
2023/05/13 07:36:09;;;;;;;0.00;0.00;;;16.00;99.90;;;;;;4966645;28;20267;-81
2023/05/13 07:38:34;;;;;;;0.00;0.00;;;16.10;99.90;;;;;;4954096;28;20185;-80
2023/05/13 07:41:00;;;;;;;0.00;0.00;;;16.10;99.90;;;;;;4968126;28;20193;-82
2023/05/13 07:43:26;;;;;;;0.00;0.00;;;16.30;99.90;;;;;;4950219;28;20273;-82
2023/05/13 07:45:52;;;;;;;0.00;0.00;;;16.40;99.90;;;;;;4969100;28;20196;-82
2023/05/13 07:48:18;;;;;;;0.00;0.00;;;16.30;99.90;;;;;;4942999;28;20557;-81
2023/05/13 07:50:46;;;;;;;0.00;0.00;;;16.50;99.90;;;;;;4950209;28;20557;-81
2023/05/13 07:53:11;;;;;;;0.00;0.00;;;16.50;99.90;;;;;;4987942;28;20444;-81
2023/05/13 07:55:37;;;;;;;0.00;0.00;;;16.70;99.90;;;;;;4954211;28;20479;-81
2023/05/13 07:58:03;;;;;;;0.00;0.00;;;16.90;99.90;;;;;;4963750;28;20194;-81
2023/05/13 08:00:28;;;;;;;0.00;0.00;;;16.90;99.90;;;;;;4960290;28;20263;-81
2023/05/13 08:02:54;;;;;;;0.00;0.00;;;17.00;99.90;;;;;;4959400;28;20614;-81
2023/05/13 08:05:20;;;;;;;0.00;0.00;;;17.20;99.90;;;;;;4967664;28;20186;-80
2023/05/13 08:07:46;;;;;;;0.00;0.00;;;17.50;99.90;;;;;;4967590;28;20482;-80
2023/05/13 08:10:11;;;;;;;0.00;0.00;;;17.50;99.90;;;;;;4973197;28;20224;-80
2023/05/13 08:12:39;;;;;;;0.00;0.00;;;17.50;99.90;;;;;;4950968;28;20665;-81
2023/05/13 08:15:06;;;;;;;0.00;0.00;;;17.80;99.90;;;;;;4974082;28;20187;-80
2023/05/13 08:17:31;;;;;;;0.00;0.00;;;17.90;99.90;;;;;;4977937;28;20472;-80
2023/05/13 08:19:57;;;;;;;0.00;0.00;;;17.80;99.90;;;;;;4973274;28;20596;-81
2023/05/13 08:22:22;;;;;;;0.00;0.00;;;18.00;99.90;;;;;;4974335;28;20706;-81
2023/05/13 08:24:48;;;;;;;0.00;0.00;;;17.80;99.90;;;;;;4983514;28;20265;-80
2023/05/13 08:27:14;;;;;;;0.00;0.00;;;17.90;99.90;;;;;;4968904;28;20190;-81
2023/05/13 08:29:39;;;;;;;0.00;0.00;;;18.00;99.90;;;;;;4983523;28;20231;-81
2023/05/13 08:32:05;;;;;;;0.00;0.00;;;18.30;99.90;;;;;;4978513;28;20188;-80
2023/05/13 08:34:31;;;;;;;0.00;0.00;;;18.10;99.90;;;;;;4965287;28;20557;-80
2023/05/13 08:36:56;;;;;;;0.00;0.00;;;18.40;99.90;;;;;;4968423;28;20441;-80
2023/05/13 08:39:22;;;;;;;0.00;0.00;;;18.60;99.90;;;;;;4985593;28;20190;-81
2023/05/13 08:41:50;;;;;;;0.00;0.00;;;18.80;99.90;;;;;;4979042;28;20194;-80
2023/05/13 08:44:17;;;;;;;0.00;0.00;;;18.70;99.90;;;;;;4968145;28;20184;-80
2023/05/13 08:46:49;;;;;;;0.00;0.00;;;;;;;;;;4981616;28;20858;-81
2023/05/13 08:49:15;;;;;;;0.00;0.00;;;18.80;99.90;;;;;;4967267;28;20495;-82
2023/05/13 08:51:41;;;;;;;0.00;0.00;;;18.90;99.90;;;;;;4955536;28;21025;-82
2023/05/13 08:54:09;;;;;;;0.00;0.00;;;19.00;99.90;;;;;;4977709;28;20743;-80
2023/05/13 08:56:34;;;;;;;0.00;0.00;;;19.10;99.90;;;;;;4969355;28;20240;-80
2023/05/13 08:59:00;;;;;;;0.00;0.00;;;19.30;99.90;;;;;;4976335;28;20449;-80
2023/05/13 09:01:26;;;;;;;0.00;0.00;;;19.40;99.90;;;;;;4967185;28;20647;-80
2023/05/13 09:03:58;;;;;;;0.00;0.00;;;19.30;99.90;;;;;;4962681;28;20192;-80
2023/05/13 09:06:24;;;;;;;0.00;0.00;;;19.60;99.90;;;;;;4958516;28;20242;-80
2023/05/13 09:08:50;;;;;;;0.00;0.00;;;19.90;99.90;;;;;;4980844;28;20492;-81
2023/05/13 09:11:15;;;;;;;0.00;0.00;;;19.80;99.90;;;;;;4972700;28;20200;-81
2023/05/13 09:13:43;;;;;;;0.00;0.00;;;19.80;99.90;;;;;;4946813;28;20488;-79
2023/05/13 09:16:10;;;;;;;0.00;0.00;;;20.10;99.90;;;;;;4972713;28;20191;-80
2023/05/13 09:18:37;;;;;;;0.00;0.00;;;20.30;99.90;;;;;;4970222;28;20482;-80
2023/05/13 09:21:30;;;;;;;0.00;0.00;;;20.10;99.90;;;;;;4972671;28;20984;-79
2023/05/13 09:24:17;;;;;;;0.00;0.00;;;20.40;99.90;;;;;;4972047;28;20527;-80
2023/05/13 09:26:44;;;;;;;0.00;0.00;;;20.50;99.90;;;;;;4962679;28;20446;-80
2023/05/13 09:29:18;;;;;;;0.00;0.00;;;20.40;99.90;;;;;;4990556;28;20841;-80
2023/05/13 09:31:54;;;;;;;0.00;0.00;;;20.80;99.90;;;;;;4971879;28;20968;-80
2023/05/13 09:34:33;;;;;;;0.00;0.00;;;20.50;99.90;;;;;;4968156;28;20543;-80
2023/05/13 09:37:05;;;;;;;0.00;0.00;;;20.60;99.90;;;;;;4967107;28;20461;-79
2023/05/13 09:39:36;;;;;;;0.00;0.00;;;21.10;99.90;;;;;;4958423;28;20454;-79
2023/05/13 09:42:02;;;;;;;0.00;0.00;;;21.40;99.90;;;;;;4960939;28;20449;-79
2023/05/13 09:44:28;;;;;;;0.00;0.00;;;21.10;99.90;;;;;;4961173;28;20442;-80
2023/05/13 09:46:54;;;;;;;0.00;0.00;;;21.00;99.90;;;;;;4956329;28;20868;-80
2023/05/13 09:49:25;;;;;;;0.00;0.00;;;21.40;99.90;;;;;;4962858;28;20532;-80
2023/05/13 09:51:51;;;;;;;0.00;0.00;;;21.40;99.90;;;;;;4981604;28;20233;-80
2023/05/13 09:54:16;;;;;;;0.00;0.00;;;21.40;99.90;;;;;;4967007;28;20480;-80
2023/05/13 09:56:42;;;;;;;0.00;0.00;;;21.10;99.90;;;;;;4973422;28;20225;-80
2023/05/13 09:59:08;;;;;;;0.00;0.00;;;21.60;99.90;;;;;;4975405;28;20454;-80
2023/05/13 10:01:35;;;;;;;0.00;0.00;;;21.70;99.90;;;;;;4982216;28;20192;-79
2023/05/13 10:04:01;;;;;;;0.00;0.00;;;21.90;99.90;;;;;;4968494;28;20193;-79
2023/05/13 10:06:29;;;;;;;0.00;0.00;;;22.00;99.90;;;;;;4962930;28;20545;-80
2023/05/13 10:08:57;;;;;;;0.00;0.00;;;22.10;99.90;;;;;;4979529;28;21027;-81
2023/05/13 10:11:23;;;;;;;0.00;0.00;;;22.00;99.90;;;;;;4966915;28;20496;-80
2023/05/13 10:13:54;;;;;;;0.00;0.00;;;22.10;99.90;;;;;;4959901;28;20457;-79
2023/05/13 10:16:21;;;;;;;0.00;0.00;;;22.40;99.90;;;;;;4978233;28;20451;-80
2023/05/13 10:18:46;;;;;;;0.00;0.00;;;22.60;99.90;;;;;;4969108;28;20519;-80
2023/05/13 10:21:13;;;;;;;0.00;0.00;;;22.90;99.90;;;;;;4978473;28;20875;-81
2023/05/13 10:23:39;;;;;;;0.00;0.00;;;23.00;99.90;;;;;;4980045;28;20216;-77
2023/05/13 10:26:06;;;;;;;0.00;0.00;;;23.20;99.90;;;;;;4962287;28;20473;-79
2023/05/13 10:28:32;;;;;;;0.00;0.00;;;23.30;99.90;;;;;;4976700;28;20440;-79
2023/05/13 10:30:57;;;;;;;0.00;0.00;;;23.30;99.90;;;;;;4968282;28;20458;-79
2023/05/13 10:33:23;;;;;;;0.00;0.00;;;23.40;99.90;;;;;;4963836;28;20446;-79
2023/05/13 10:36:08;;;;;;;0.00;0.00;;;23.70;99.90;;;;;;4967375;28;20689;-78
2023/05/13 10:38:58;;;;;;;0.00;0.00;;;23.60;99.90;;;;;;4962802;28;20448;-78
2023/05/13 10:41:42;;;;;;;0.00;0.00;;;23.90;99.90;;;;;;4955045;28;21650;-79
2023/05/13 10:44:08;;;;;;;0.00;0.00;;;24.10;99.90;;;;;;4966307;28;20465;-79
2023/05/13 10:46:34;;;;;;;0.00;0.00;;;24.40;99.90;;;;;;4965523;28;20441;-78
2023/05/13 10:48:59;;;;;;;0.00;0.00;;;24.40;99.90;;;;;;4975856;28;20219;-78
2023/05/13 10:51:25;;;;;;;0.00;0.00;;;24.50;99.90;;;;;;4972151;28;20598;-79
2023/05/13 10:53:53;;;;;;;0.00;0.00;;;24.60;99.90;;;;;;4975112;28;20280;-78
2023/05/13 10:56:21;;;;;;;0.00;0.00;;;25.00;99.90;;;;;;4974456;28;20432;-79
2023/05/13 10:59:17;;;;;;;0.00;0.00;;;25.60;99.90;;;;;;4973109;28;20454;-79
2023/05/13 11:01:42;;;;;;;0.00;0.00;;;25.60;99.90;;;;;;4948623;28;20460;-78
2023/05/13 11:04:13;;;;;;;0.00;0.00;;;25.10;99.90;;;;;;4982547;28;20444;-79
2023/05/13 11:06:40;;;;;;;0.00;0.00;;;24.90;99.90;;;;;;4975238;28;20218;-78
2023/05/13 11:09:13;;;;;;;0.00;0.00;;;25.10;99.90;;;;;;4978590;28;20525;-78
2023/05/13 11:11:39;;;;;;;0.00;0.00;;;25.20;99.90;;;;;;4975451;28;20446;-77
2023/05/13 11:14:15;;;;;;;0.00;0.00;;;25.50;99.90;;;;;;4968258;28;20437;-78
2023/05/13 11:16:57;;;;;;;0.00;0.00;;;25.40;99.90;;;;;;4961848;28;21026;-78
2023/05/13 11:19:47;;;;;;;0.00;0.00;;;25.60;99.90;;;;;;4982661;28;20448;-78
2023/05/13 11:22:16;;;;;;;0.00;0.00;;;25.90;99.90;;;;;;4972450;28;20823;-78
2023/05/13 11:25:01;;;;;;;0.00;0.00;;;26.00;99.90;;;;;;4976865;28;20451;-78
2023/05/13 11:27:26;;;;;;;0.00;0.00;;;26.00;98.80;;;;;;4957576;28;20454;-78
2023/05/13 11:29:54;;;;;;;0.00;0.00;;;25.90;98.80;;;;;;4963796;28;20491;-78
2023/05/13 11:32:51;;;;;;;0.00;0.00;;;26.00;97.40;;;;;;4975490;28;20654;-77
2023/05/13 11:35:34;;;;;;;0.00;0.00;;;25.80;98.00;;;;;;4970021;28;20520;-77
2023/05/13 11:38:02;;;;;;;0.00;0.00;;;25.90;96.20;;;;;;4960777;28;20495;-78
2023/05/13 11:40:28;;;;;;;0.00;0.00;;;25.70;97.30;;;;;;4963482;28;20825;-78
2023/05/13 11:42:54;;;;;;;0.00;0.00;;;26.10;99.00;;;;;;4988708;28;20448;-79
2023/05/13 11:45:22;;;;;;;0.00;0.00;;;26.30;95.90;;;;;;4970555;28;20452;-78
2023/05/13 11:47:48;;;;;;;0.00;0.00;;;26.70;99.90;;;;;;4963923;28;20445;-78
2023/05/13 11:50:26;;;;;;;0.00;0.00;;;26.50;99.90;;;;;;4983344;28;20489;-78
2023/05/13 11:53:10;;;;;;;0.00;0.00;;;26.70;99.90;;;;;;4970492;28;20193;-78
2023/05/13 11:55:35;;;;;;;0.00;0.00;;;26.60;99.90;;;;;;4981366;28;20448;-78
2023/05/13 11:58:02;;;;;;;0.00;0.00;;;26.10;99.90;;;;;;4952454;28;20443;-78
2023/05/13 12:00:30;;;;;;;0.00;0.00;;;26.20;99.90;;;;;;4974340;28;20190;-78
2023/05/13 12:02:56;;;;;;;0.00;0.00;;;26.50;99.90;;;;;;4978906;28;20455;-78
2023/05/13 12:05:22;;;;;;;0.00;0.00;;;26.80;99.90;;;;;;4952090;28;20885;-79
2023/05/13 12:07:48;;;;;;;0.00;0.00;;;27.20;99.90;;;;;;4960778;28;20971;-78
2023/05/13 12:10:15;;;;;;;0.00;0.00;;;26.90;99.90;;;;;;4966547;28;20500;-77
2023/05/13 12:12:44;;;;;;;0.00;0.00;;;26.80;99.90;;;;;;4968302;28;21037;-78
2023/05/13 12:15:13;;;;;;;0.00;0.00;;;26.50;99.90;;;;;;4979613;28;20449;-79
2023/05/13 12:17:38;;;;;;;0.00;0.00;;;27.00;99.50;;;;;;4936051;28;20453;-75
2023/05/13 12:20:05;;;;;;;0.00;0.00;;;27.10;97.80;;;;;;4950266;28;20449;-75
2023/05/13 12:22:31;;;;;;;0.00;0.00;;;27.00;98.30;;;;;;4967646;28;20181;-75
2023/05/13 12:25:02;;;;;;;0.00;0.00;;;27.00;98.50;;;;;;4960871;28;20954;-75
2023/05/13 12:27:28;;;;;;;0.00;0.00;;;27.20;99.30;;;;;;4959968;28;20450;-75
2023/05/13 12:29:54;;;;;;;0.00;0.00;;;27.00;96.70;;;;;;4958010;28;20490;-76
2023/05/13 12:32:20;;;;;;;0.00;0.00;;;26.90;97.30;;;;;;4946570;28;20193;-75
2023/05/13 12:34:49;;;;;;;0.00;0.00;;;27.90;97.30;;;;;;4969285;28;20446;-75
2023/05/13 12:37:15;;;;;;;0.00;0.00;;;27.40;96.60;;;;;;4967744;28;20213;-75
2023/05/13 12:39:41;;;;;;;0.00;0.00;;;27.10;96.30;;;;;;4951879;28;20515;-75
2023/05/13 12:42:17;;;;;;;0.00;0.00;;;27.40;96.10;;;;;;4949922;28;20255;-76
2023/05/13 12:44:46;;;;;;;0.00;0.00;;;26.80;95.60;;;;;;4964642;28;20468;-75
2023/05/13 12:47:14;;;;;;;0.00;0.00;;;26.30;98.40;;;;;;4948047;28;21159;-75
2023/05/13 12:49:57;;;;;;;0.00;0.00;;;26.60;99.90;;;;;;4965039;28;20492;-75